createdAt,value
2019-03-17T00:01:37.903Z,40.57
2019-03-17T00:04:31.320Z,39.67
2019-03-17T00:07:09.731Z,40.03
2019-03-17T00:09:54.813Z,39.57
2019-03-17T00:12:40.163Z,40.17
2019-03-17T00:15:25.657Z,45.20
2019-03-17T00:18:10.878Z,41.47
2019-03-17T00:20:55.841Z,44.40
2019-03-17T00:23:41.714Z,45.47
2019-03-17T00:26:27.019Z,42.63
2019-03-17T00:29:12.217Z,44.97
2019-03-17T00:31:57.693Z,45.53
2019-03-17T00:34:44.313Z,47.83
2019-03-17T00:37:29.987Z,45.63
2019-03-17T00:40:15.127Z,50.07
2019-03-17T00:43:00.039Z,46.67
2019-03-17T00:45:45.405Z,49.03
2019-03-17T00:48:31.634Z,44.27
2019-03-17T00:51:16.698Z,53.37
2019-03-17T00:54:01.813Z,51.87
2019-03-17T00:56:46.748Z,57.17
2019-03-17T00:59:33.668Z,60.63
2019-03-17T01:02:20.034Z,59.33
2019-03-17T01:05:05.298Z,60.00
2019-03-17T01:07:50.467Z,56.40
2019-03-17T01:10:35.548Z,58.43
2019-03-17T01:13:20.594Z,63.50
2019-03-17T01:16:06.149Z,61.70
2019-03-17T01:18:51.294Z,60.97
2019-03-17T01:21:36.512Z,64.67
2019-03-17T01:24:21.855Z,58.27
2019-03-17T01:27:08.259Z,53.77
2019-03-17T01:29:53.916Z,58.50
2019-03-17T01:32:39.625Z,57.93
2019-03-17T01:35:25.380Z,58.07
2019-03-17T01:38:11.044Z,60.73
2019-03-17T01:40:56.450Z,60.37
2019-03-17T01:43:43.379Z,58.03
2019-03-17T01:46:28.399Z,60.13
2019-03-17T01:49:13.740Z,60.53
2019-03-17T01:51:59.168Z,56.57
2019-03-17T01:54:44.451Z,56.23
2019-03-17T01:57:29.727Z,57.87
2019-03-17T02:00:15.290Z,55.10
2019-03-17T02:03:00.403Z,55.90
2019-03-17T02:05:45.838Z,54.77
2019-03-17T02:08:31.013Z,47.40
2019-03-17T02:11:16.452Z,49.53
2019-03-17T02:14:02.130Z,52.53
2019-03-17T02:16:47.169Z,50.43
2019-03-17T02:19:31.978Z,56.53
2019-03-17T02:22:17.293Z,50.73
2019-03-17T02:25:04.420Z,49.50
2019-03-17T02:27:50.549Z,43.33
2019-03-17T02:30:36.203Z,44.20
2019-03-17T02:33:21.004Z,45.37
2019-03-17T02:36:08.411Z,42.57
2019-03-17T02:38:53.421Z,47.50
2019-03-17T02:41:38.514Z,47.97
2019-03-17T02:44:25.403Z,46.10
2019-03-17T02:47:10.309Z,47.10
2019-03-17T02:49:55.007Z,46.00
2019-03-17T02:52:42.359Z,45.10
2019-03-17T02:55:27.244Z,46.83
2019-03-17T02:58:12.702Z,45.27
2019-03-17T03:00:58.014Z,47.17
2019-03-17T03:03:42.992Z,47.07
2019-03-17T03:06:28.048Z,42.93
2019-03-17T03:09:13.469Z,47.93
2019-03-17T03:11:58.428Z,42.50
2019-03-17T03:14:45.453Z,41.40
2019-03-17T03:17:30.674Z,40.90
2019-03-17T03:20:15.839Z,39.23
2019-03-17T03:23:01.170Z,42.23
2019-03-17T03:25:47.281Z,38.33
2019-03-17T03:28:32.464Z,41.73
2019-03-17T03:31:18.835Z,42.57
2019-03-17T03:34:04.088Z,38.67
2019-03-17T03:36:49.307Z,36.77
2019-03-17T03:39:34.397Z,37.23
2019-03-17T03:42:19.438Z,36.23
2019-03-17T03:45:11.334Z,37.47
2019-03-17T03:47:56.296Z,40.00
2019-03-17T03:50:41.615Z,40.00
2019-03-17T03:53:27.453Z,39.67
2019-03-17T03:56:12.719Z,42.90
2019-03-17T03:58:58.112Z,42.83
2019-03-17T04:01:43.381Z,37.73
2019-03-17T04:04:28.761Z,36.83
2019-03-17T04:07:13.867Z,44.57
2019-03-17T04:09:59.115Z,43.37
2019-03-17T04:12:44.607Z,37.27
2019-03-17T04:15:30.827Z,40.00
2019-03-17T04:18:16.251Z,35.70
2019-03-17T04:21:01.194Z,35.70
2019-03-17T04:23:47.018Z,30.20
2019-03-17T04:26:32.183Z,35.97
2019-03-17T04:29:17.421Z,36.53
2019-03-17T04:32:02.945Z,36.10
2019-03-17T04:34:47.863Z,33.63
2019-03-17T04:37:34.737Z,32.23
2019-03-17T04:40:19.691Z,29.37
2019-03-17T04:43:04.651Z,31.30
2019-03-17T04:45:51.010Z,28.43
2019-03-17T04:48:36.125Z,25.73
2019-03-17T04:51:20.870Z,30.53
2019-03-17T04:54:05.622Z,30.70
2019-03-17T04:56:50.953Z,24.47
2019-03-17T04:59:36.406Z,29.07
2019-03-17T05:02:21.530Z,26.07
2019-03-17T05:05:07.543Z,28.80
2019-03-17T05:07:52.687Z,26.87
2019-03-17T05:10:38.029Z,26.47
2019-03-17T05:13:23.244Z,23.97
2019-03-17T05:16:08.479Z,23.13
2019-03-17T05:18:53.764Z,25.87
2019-03-17T05:21:39.430Z,23.30
2019-03-17T05:24:25.390Z,23.77
2019-03-17T05:27:10.666Z,23.03
2019-03-17T05:29:55.836Z,22.87
2019-03-17T05:32:41.076Z,21.87
2019-03-17T05:35:26.032Z,20.80
2019-03-17T05:38:11.439Z,19.77
2019-03-17T05:40:56.656Z,26.90
2019-03-17T05:43:41.657Z,26.03
2019-03-17T05:46:26.515Z,19.63
2019-03-17T05:49:11.526Z,21.33
2019-03-17T05:51:56.470Z,19.97
2019-03-17T05:54:41.442Z,23.77
2019-03-17T05:57:26.705Z,20.47
2019-03-17T06:00:14.563Z,19.77
2019-03-17T06:02:59.778Z,19.37
2019-03-17T06:05:44.695Z,19.73
2019-03-17T06:08:29.698Z,20.70
2019-03-17T06:11:14.883Z,16.90
2019-03-17T06:13:59.754Z,18.77
2019-03-17T06:16:44.658Z,17.63
2019-03-17T06:19:29.757Z,19.13
2019-03-17T06:22:15.241Z,18.93
2019-03-17T06:25:00.640Z,18.43
2019-03-17T06:27:45.869Z,16.90
2019-03-17T06:30:33.369Z,16.30
2019-03-17T06:33:18.810Z,16.47
2019-03-17T06:36:04.238Z,14.63
2019-03-17T06:38:49.592Z,16.10
2019-03-17T06:41:34.772Z,15.83
2019-03-17T06:44:19.828Z,16.00
2019-03-17T06:47:05.891Z,14.70
2019-03-17T06:49:51.310Z,14.90
2019-03-17T06:52:36.752Z,14.43
2019-03-17T06:55:21.919Z,14.87
2019-03-17T06:58:07.114Z,16.67
2019-03-17T07:00:52.273Z,14.70
2019-03-17T07:03:37.732Z,15.27
2019-03-17T07:06:24.032Z,14.57
2019-03-17T07:09:10.283Z,18.57
2019-03-17T07:11:55.811Z,12.77
2019-03-17T07:14:40.787Z,14.53
2019-03-17T07:17:26.019Z,13.97
2019-03-17T07:20:12.510Z,12.60
2019-03-17T07:22:57.608Z,13.87
2019-03-17T07:25:42.924Z,14.17
2019-03-17T07:28:27.896Z,12.57
2019-03-17T07:31:13.291Z,15.17
2019-03-17T07:33:58.414Z,16.67
2019-03-17T07:36:43.603Z,15.20
2019-03-17T07:39:28.673Z,14.97
2019-03-17T07:42:13.463Z,12.57
2019-03-17T07:44:59.118Z,13.50
2019-03-17T07:47:44.498Z,10.67
2019-03-17T07:50:29.558Z,9.53
2019-03-17T07:53:14.677Z,13.07
2019-03-17T07:56:00.159Z,14.20
2019-03-17T07:58:46.410Z,14.47
2019-03-17T08:01:31.405Z,10.77
2019-03-17T08:04:17.210Z,13.30
2019-03-17T08:07:02.148Z,12.57
2019-03-17T08:09:48.983Z,12.10
2019-03-17T08:12:34.374Z,18.00
2019-03-17T08:15:19.792Z,12.30
2019-03-17T08:18:05.255Z,15.93
2019-03-17T08:20:50.114Z,12.40
2019-03-17T08:23:35.027Z,12.47
2019-03-17T08:26:20.234Z,11.47
2019-03-17T08:29:05.781Z,11.53
2019-03-17T08:31:50.763Z,13.13
2019-03-17T08:34:36.367Z,13.43
2019-03-17T08:37:21.773Z,10.57
2019-03-17T08:40:15.754Z,12.97
2019-03-17T08:43:02.713Z,12.37
2019-03-17T08:45:47.977Z,10.37
2019-03-17T08:48:33.487Z,9.23
2019-03-17T08:51:20.066Z,11.13
2019-03-17T08:54:05.376Z,10.47
2019-03-17T08:56:51.080Z,10.00
2019-03-17T08:59:36.488Z,9.50
2019-03-17T09:02:21.789Z,10.53
2019-03-17T09:05:07.274Z,11.27
2019-03-17T09:07:54.296Z,9.73
2019-03-17T09:10:39.902Z,9.10
2019-03-17T09:13:25.359Z,9.60
2019-03-17T09:16:10.168Z,9.43
2019-03-17T09:18:57.603Z,9.83
2019-03-17T09:21:42.175Z,11.43
2019-03-17T09:24:26.981Z,10.97
2019-03-17T09:27:12.211Z,11.87
2019-03-17T09:29:57.608Z,10.50
2019-03-17T09:32:43.822Z,9.13
2019-03-17T09:35:29.197Z,8.00
2019-03-17T09:38:14.404Z,13.73
2019-03-17T09:40:59.906Z,11.47
2019-03-17T09:43:45.058Z,8.97
2019-03-17T09:46:30.045Z,11.20
2019-03-17T09:49:15.395Z,9.80
2019-03-17T09:52:00.526Z,11.73
2019-03-17T09:54:45.756Z,9.90
2019-03-17T09:57:31.122Z,10.40
2019-03-17T10:00:20.813Z,10.53
2019-03-17T10:03:06.259Z,10.60
2019-03-17T10:05:51.794Z,9.93
2019-03-17T10:08:38.552Z,11.03
2019-03-17T10:11:24.781Z,11.97
2019-03-17T10:14:09.997Z,11.93
2019-03-17T10:16:55.220Z,9.80
2019-03-17T10:19:40.486Z,9.20
2019-03-17T10:22:27.899Z,11.60
2019-03-17T10:25:13.470Z,8.23
2019-03-17T10:27:58.177Z,8.60
2019-03-17T10:30:43.341Z,9.93
2019-03-17T10:33:29.822Z,10.03
2019-03-17T10:36:15.197Z,13.17
2019-03-17T10:39:11.885Z,10.50
2019-03-17T10:41:47.751Z,10.43
2019-03-17T10:44:34.908Z,15.70
2019-03-17T10:47:21.320Z,11.40
2019-03-17T10:50:13.489Z,10.93
2019-03-17T10:53:00.563Z,9.03
2019-03-17T10:55:45.610Z,9.17
2019-03-17T10:58:32.495Z,9.40
2019-03-17T11:01:17.711Z,10.57
2019-03-17T11:04:02.867Z,8.20
2019-03-17T11:06:48.328Z,8.63
2019-03-17T11:09:33.273Z,11.53
2019-03-17T11:12:18.691Z,8.53
2019-03-17T11:15:08.823Z,10.57
2019-03-17T11:17:54.474Z,10.17
2019-03-17T11:20:39.873Z,10.67
2019-03-17T11:23:24.975Z,9.90
2019-03-17T11:26:10.335Z,7.83
2019-03-17T11:28:55.821Z,7.10
2019-03-17T11:31:41.200Z,11.77
2019-03-17T11:34:27.000Z,9.23
2019-03-17T11:37:12.782Z,6.83
2019-03-17T11:39:58.095Z,7.63
2019-03-17T11:42:43.703Z,7.93
2019-03-17T11:45:28.610Z,5.33
2019-03-17T11:48:14.038Z,6.30
2019-03-17T11:50:59.095Z,10.63
2019-03-17T11:53:44.374Z,7.23
2019-03-17T11:56:29.650Z,7.97
2019-03-17T11:59:15.031Z,9.00
2019-03-17T12:02:01.456Z,5.67
2019-03-17T12:04:46.595Z,6.80
2019-03-17T12:07:32.959Z,9.60
2019-03-17T12:10:23.527Z,7.27
2019-03-17T12:13:08.485Z,7.60
2019-03-17T12:15:53.850Z,6.33
2019-03-17T12:18:38.780Z,9.77
2019-03-17T12:21:24.070Z,6.37
2019-03-17T12:24:09.811Z,8.33
2019-03-17T12:26:55.131Z,8.17
2019-03-17T12:29:40.392Z,8.13
2019-03-17T12:32:27.207Z,9.17
2019-03-17T12:35:12.513Z,9.03
2019-03-17T12:37:57.702Z,6.70
2019-03-17T12:40:42.995Z,10.90
2019-03-17T12:43:28.415Z,7.60
2019-03-17T12:46:13.652Z,6.20
2019-03-17T12:49:01.050Z,7.17
2019-03-17T12:51:46.077Z,10.13
2019-03-17T12:54:33.554Z,7.87
2019-03-17T12:57:18.697Z,10.63
2019-03-17T13:00:13.017Z,7.60
2019-03-17T13:02:58.366Z,5.47
2019-03-17T13:05:43.407Z,6.83
2019-03-17T13:08:30.261Z,7.70
2019-03-17T13:11:16.622Z,8.73
2019-03-17T13:14:01.805Z,7.53
2019-03-17T13:16:47.009Z,6.63
2019-03-17T13:19:32.189Z,8.27
2019-03-17T13:22:17.581Z,8.90
2019-03-17T13:25:04.661Z,8.40
2019-03-17T13:27:49.940Z,8.20
2019-03-17T13:30:35.017Z,10.33
2019-03-17T13:33:21.766Z,5.70
2019-03-17T13:36:08.772Z,9.23
2019-03-17T13:38:54.127Z,10.23
2019-03-17T13:41:41.426Z,7.43
2019-03-17T13:44:27.336Z,6.90
2019-03-17T13:47:15.597Z,9.27
2019-03-17T13:50:01.372Z,8.83
2019-03-17T13:52:46.844Z,6.70
2019-03-17T13:55:32.334Z,7.13
2019-03-17T13:58:17.489Z,8.97
2019-03-17T14:01:03.214Z,7.23
2019-03-17T14:03:48.118Z,9.13
2019-03-17T14:06:33.494Z,8.57
2019-03-17T14:09:18.967Z,7.90
2019-03-17T14:12:03.929Z,9.13
2019-03-17T14:14:49.234Z,9.90
2019-03-17T14:17:34.281Z,8.67
2019-03-17T14:20:21.282Z,11.10
2019-03-17T14:23:06.507Z,6.60
2019-03-17T14:25:51.513Z,8.70
2019-03-17T14:28:37.094Z,8.27
2019-03-17T14:31:22.374Z,16.70
2019-03-17T14:34:07.570Z,11.37
2019-03-17T14:36:52.955Z,15.30
2019-03-17T14:39:38.121Z,8.83
2019-03-17T14:42:23.358Z,11.77
2019-03-17T14:45:14.132Z,11.10
2019-03-17T14:47:59.440Z,9.27
2019-03-17T14:50:44.977Z,10.33
2019-03-17T14:53:30.075Z,10.47
2019-03-17T14:56:15.587Z,12.83
2019-03-17T14:59:00.552Z,11.73
2019-03-17T15:01:46.375Z,28.17
2019-03-17T15:04:31.809Z,21.90
2019-03-17T15:07:16.992Z,21.07
2019-03-17T15:10:04.223Z,15.83
2019-03-17T15:12:49.022Z,17.97
2019-03-17T15:15:34.254Z,25.03
2019-03-17T15:18:20.557Z,23.93
2019-03-17T15:21:05.830Z,14.53
2019-03-17T15:23:51.092Z,16.30
2019-03-17T15:26:36.416Z,15.03
2019-03-17T15:29:21.521Z,14.57
2019-03-17T15:32:06.787Z,18.37
2019-03-17T15:34:51.850Z,14.73
2019-03-17T15:37:37.491Z,18.50
2019-03-17T15:40:22.723Z,20.47
2019-03-17T15:43:07.919Z,16.53
2019-03-17T15:45:52.793Z,12.67
2019-03-17T15:48:38.211Z,15.13
2019-03-17T15:51:23.393Z,22.03
2019-03-17T15:54:08.925Z,12.23
2019-03-17T15:56:54.189Z,15.23
2019-03-17T15:59:39.564Z,17.27
2019-03-17T16:02:24.874Z,16.60
2019-03-17T16:05:10.377Z,12.70
2019-03-17T16:07:55.597Z,17.43
2019-03-17T16:10:41.073Z,14.67
2019-03-17T16:13:26.455Z,13.20
2019-03-17T16:16:11.482Z,15.23
2019-03-17T16:18:56.532Z,12.57
2019-03-17T16:21:41.990Z,14.60
2019-03-17T16:24:27.090Z,15.90
2019-03-17T16:27:12.276Z,16.60
2019-03-17T16:29:57.280Z,24.27
2019-03-17T16:32:42.157Z,22.77
2019-03-17T16:35:27.504Z,22.67
2019-03-17T16:38:12.706Z,23.57
2019-03-17T16:40:57.868Z,21.03
2019-03-17T16:43:43.131Z,25.17
2019-03-17T16:46:28.657Z,19.23
2019-03-17T16:49:14.171Z,18.30
2019-03-17T16:51:59.245Z,17.30
2019-03-17T16:54:44.529Z,20.40
2019-03-17T16:57:29.823Z,21.80
2019-03-17T17:00:20.872Z,17.90
2019-03-17T17:03:05.959Z,24.83
2019-03-17T17:05:51.119Z,25.57
2019-03-17T17:08:36.359Z,31.43
2019-03-17T17:11:41.950Z,39.80
2019-03-17T17:14:26.990Z,83.67
2019-03-17T17:17:12.135Z,92.20
2019-03-17T17:19:57.486Z,24.93
2019-03-17T17:22:42.896Z,24.77
2019-03-17T17:25:28.462Z,20.03
2019-03-17T17:28:13.678Z,21.30
2019-03-17T17:30:59.093Z,23.30
2019-03-17T17:33:44.301Z,21.10
2019-03-17T17:36:29.359Z,15.77
2019-03-17T17:39:14.826Z,14.30
2019-03-17T17:42:08.869Z,18.23
2019-03-17T17:44:47.188Z,20.67
2019-03-17T17:47:32.706Z,33.03
2019-03-17T17:50:26.751Z,22.03
2019-03-17T17:53:11.768Z,13.50
2019-03-17T17:55:57.525Z,17.07
2019-03-17T17:58:42.691Z,14.57
2019-03-17T18:01:27.476Z,13.33
2019-03-17T18:04:13.143Z,14.00
2019-03-17T18:06:58.291Z,10.00
2019-03-17T18:09:43.105Z,11.70
2019-03-17T18:12:28.247Z,9.43
2019-03-17T18:15:22.010Z,9.17
2019-03-17T18:18:07.345Z,6.23
2019-03-17T18:20:52.392Z,5.63
2019-03-17T18:23:37.651Z,7.20
2019-03-17T18:26:22.820Z,6.73
2019-03-17T18:29:08.171Z,5.90
2019-03-17T18:31:53.809Z,6.53
2019-03-17T18:34:38.797Z,9.77
2019-03-17T18:37:24.219Z,7.67
2019-03-17T18:40:13.984Z,8.30
2019-03-17T18:42:59.109Z,8.17
2019-03-17T18:45:44.368Z,13.87
2019-03-17T18:48:29.908Z,13.63
2019-03-17T18:51:15.068Z,10.60
2019-03-17T18:54:00.502Z,11.20
2019-03-17T18:56:45.600Z,10.67
2019-03-17T18:59:12.167Z,8.90
2019-03-17T19:01:38.796Z,11.60
2019-03-17T19:04:05.201Z,9.37
2019-03-17T19:06:31.663Z,11.70
2019-03-17T19:08:58.189Z,11.10
2019-03-17T19:11:24.609Z,11.93
2019-03-17T19:13:51.263Z,14.00
2019-03-17T19:16:17.955Z,11.53
2019-03-17T19:18:44.691Z,9.53
2019-03-17T19:21:11.158Z,26.00
2019-03-17T19:23:37.889Z,16.47
2019-03-17T19:26:04.340Z,10.73
2019-03-17T19:28:30.681Z,8.13
2019-03-17T19:30:57.129Z,17.60
2019-03-17T19:33:23.601Z,13.97
2019-03-17T19:35:50.325Z,16.70
2019-03-17T19:38:16.751Z,23.57
2019-03-17T19:40:43.239Z,29.17
2019-03-17T19:43:09.660Z,24.60
2019-03-17T19:45:36.456Z,19.53
2019-03-17T19:48:03.231Z,20.20
2019-03-17T19:50:29.835Z,24.23
2019-03-17T19:52:56.407Z,18.97
2019-03-17T19:55:22.709Z,16.77
2019-03-17T19:57:49.224Z,17.40
2019-03-17T20:00:19.529Z,18.53
2019-03-17T20:02:47.760Z,12.47
2019-03-17T20:05:14.794Z,13.73
2019-03-17T20:07:41.752Z,10.20
2019-03-17T20:10:24.969Z,13.40
2019-03-17T20:12:53.790Z,18.43
2019-03-17T20:15:20.279Z,23.50
2019-03-17T20:17:46.829Z,15.03
2019-03-17T20:20:13.658Z,10.40
2019-03-17T20:22:40.765Z,11.73
2019-03-17T20:25:07.549Z,11.90
2019-03-17T20:27:33.980Z,9.87
2019-03-17T20:30:00.502Z,11.70
2019-03-17T20:32:27.055Z,10.80
2019-03-17T20:34:53.437Z,11.33
2019-03-17T20:37:20.190Z,17.60
2019-03-17T20:39:48.216Z,19.63
2019-03-17T20:42:14.703Z,18.80
2019-03-17T20:44:41.177Z,13.13
2019-03-17T20:47:07.777Z,27.87
2019-03-17T20:49:34.580Z,36.07
2019-03-17T20:52:01.027Z,38.73
2019-03-17T20:54:27.546Z,32.93
2019-03-17T20:56:54.395Z,28.23
2019-03-17T20:59:21.342Z,15.03
2019-03-17T21:01:47.849Z,16.17
2019-03-17T21:04:14.224Z,11.87
2019-03-17T21:06:40.578Z,12.27
2019-03-17T21:09:07.318Z,12.13
2019-03-17T21:11:35.908Z,11.47
2019-03-17T21:14:04.639Z,9.93
2019-03-17T21:16:31.161Z,7.13
2019-03-17T21:18:59.694Z,8.23
2019-03-17T21:21:26.280Z,7.90
2019-03-17T21:23:52.709Z,8.60
2019-03-17T21:26:21.170Z,8.53
2019-03-17T21:28:50.202Z,9.77
2019-03-17T21:31:18.770Z,10.70
2019-03-17T21:33:47.195Z,10.77
2019-03-17T21:36:15.761Z,17.37
2019-03-17T21:38:44.189Z,15.27
2019-03-17T21:41:12.634Z,11.03
2019-03-17T21:43:59.984Z,10.40
2019-03-17T21:46:26.702Z,9.20
2019-03-17T21:48:53.256Z,9.40
2019-03-17T21:51:21.116Z,8.23
2019-03-17T21:53:47.630Z,9.00
2019-03-17T21:56:14.112Z,7.30
2019-03-17T21:58:40.991Z,9.70
2019-03-17T22:01:09.308Z,8.00
2019-03-17T22:03:36.061Z,9.60
2019-03-17T22:06:02.854Z,8.10
2019-03-17T22:08:29.271Z,8.53
2019-03-17T22:10:55.907Z,9.77
2019-03-17T22:13:24.425Z,9.57
2019-03-17T22:15:50.801Z,12.33
2019-03-17T22:18:17.499Z,9.83
2019-03-17T22:20:44.376Z,11.60
2019-03-17T22:23:10.971Z,9.63
2019-03-17T22:25:37.581Z,10.40
2019-03-17T22:28:08.683Z,9.00
2019-03-17T22:30:32.831Z,12.63
2019-03-17T22:32:59.497Z,12.83
2019-03-17T22:35:25.895Z,12.30
2019-03-17T22:37:52.310Z,11.97
2019-03-17T22:40:38.694Z,12.77
2019-03-17T22:43:05.160Z,14.33
2019-03-17T22:45:31.673Z,12.70
2019-03-17T22:47:58.775Z,11.90
2019-03-17T22:50:25.189Z,13.00
2019-03-17T22:52:51.699Z,12.93
2019-03-17T22:55:18.461Z,11.97
2019-03-17T22:57:46.249Z,12.13
2019-03-17T23:00:25.846Z,13.30
2019-03-17T23:02:52.499Z,13.47
2019-03-17T23:05:19.145Z,13.90
2019-03-17T23:07:45.880Z,12.27
2019-03-17T23:10:12.516Z,13.70
2019-03-17T23:12:39.153Z,19.17
2019-03-17T23:15:08.465Z,21.00
2019-03-17T23:17:36.311Z,21.97
2019-03-17T23:20:05.155Z,25.73
2019-03-17T23:22:32.210Z,29.17
2019-03-17T23:24:58.846Z,24.07
2019-03-17T23:27:25.494Z,20.90
2019-03-17T23:29:52.167Z,21.83
2019-03-17T23:32:18.856Z,21.93
2019-03-17T23:34:45.514Z,21.10
2019-03-17T23:37:12.206Z,20.57
2019-03-17T23:39:38.858Z,27.03
2019-03-17T23:42:05.548Z,22.50
2019-03-17T23:44:32.291Z,22.37
2019-03-17T23:46:58.950Z,24.57
2019-03-17T23:49:26.741Z,22.33
2019-03-17T23:51:53.731Z,25.13
2019-03-17T23:54:20.369Z,23.67
2019-03-17T23:56:47.357Z,21.20
2019-03-17T23:59:14.065Z,22.80
